createdAt,value
2018-09-25T00:00:03.454Z,1014.29
2018-09-25T00:01:03.453Z,1014.30
2018-09-25T00:02:03.482Z,1014.34
2018-09-25T00:03:03.388Z,1014.35
2018-09-25T00:04:03.367Z,1014.39
2018-09-25T00:05:03.348Z,1014.38
2018-09-25T00:06:03.315Z,1014.45
2018-09-25T00:07:03.290Z,1014.45
2018-09-25T00:08:03.267Z,1014.41
2018-09-25T00:09:03.240Z,1014.45
2018-09-25T00:10:03.223Z,1014.44
2018-09-25T00:11:03.220Z,1014.48
2018-09-25T00:12:03.189Z,1014.48
2018-09-25T00:13:03.154Z,1014.51
2018-09-25T00:14:03.153Z,1014.48
2018-09-25T00:15:03.109Z,1014.53
2018-09-25T00:16:03.106Z,1014.51
2018-09-25T00:17:03.101Z,1014.55
2018-09-25T00:18:03.041Z,1014.53
2018-09-25T00:19:03.033Z,1014.52
2018-09-25T00:20:03.011Z,1014.51
2018-09-25T00:21:02.969Z,1014.53
2018-09-25T00:22:02.951Z,1014.50
2018-09-25T00:23:02.925Z,1014.48
2018-09-25T00:24:02.930Z,1014.47
2018-09-25T00:25:02.877Z,1014.50
2018-09-25T00:26:02.866Z,1014.46
2018-09-25T00:27:02.842Z,1014.48
2018-09-25T00:28:02.806Z,1014.47
2018-09-25T00:29:02.801Z,1014.49
2018-09-25T00:30:02.771Z,1014.49
2018-09-25T00:31:02.778Z,1014.48
2018-09-25T00:32:02.755Z,1014.50
2018-09-25T00:33:02.696Z,1014.48
2018-09-25T00:34:02.709Z,1014.49
2018-09-25T00:35:02.655Z,1014.45
2018-09-25T00:36:02.636Z,1014.43
2018-09-25T00:37:02.610Z,1014.40
2018-09-25T00:38:02.591Z,1014.41
2018-09-25T00:39:02.578Z,1014.40
2018-09-25T00:40:02.548Z,1014.41
2018-09-25T00:41:02.530Z,1014.47
2018-09-25T00:42:02.497Z,1014.44
2018-09-25T00:43:02.493Z,1014.44
2018-09-25T00:44:02.468Z,1014.45
2018-09-25T00:45:02.442Z,1014.49
2018-09-25T00:46:02.436Z,1014.51
2018-09-25T00:47:02.430Z,1014.49
2018-09-25T00:48:02.360Z,1014.56
2018-09-25T00:49:02.346Z,1014.56
2018-09-25T00:50:02.327Z,1014.54
2018-09-25T00:51:02.303Z,1014.52
2018-09-25T00:52:02.304Z,1014.53
2018-09-25T00:53:02.249Z,1014.50
2018-09-25T00:54:02.224Z,1014.46
2018-09-25T00:55:02.207Z,1014.49
2018-09-25T00:56:02.178Z,1014.48
2018-09-25T00:57:02.183Z,1014.47
2018-09-25T00:58:02.134Z,1014.48
2018-09-25T00:59:02.128Z,1014.46
2018-09-25T01:00:02.112Z,1014.45
2018-09-25T01:01:02.062Z,1014.44
2018-09-25T01:02:02.057Z,1014.43
2018-09-25T01:03:02.047Z,1014.47
2018-09-25T01:04:02.005Z,1014.47
2018-09-25T01:05:01.980Z,1014.48
2018-09-25T01:06:01.944Z,1014.40
2018-09-25T01:07:01.960Z,1014.41
2018-09-25T01:08:01.948Z,1014.39
2018-09-25T01:09:01.873Z,1014.42
2018-09-25T01:10:01.865Z,1014.45
2018-09-25T01:11:01.832Z,1014.46
2018-09-25T01:12:01.807Z,1014.47
2018-09-25T01:13:01.813Z,1014.43
2018-09-25T01:14:01.765Z,1014.42
2018-09-25T01:15:01.747Z,1014.39
2018-09-25T01:16:01.745Z,1014.43
2018-09-25T01:17:01.707Z,1014.41
2018-09-25T01:18:01.678Z,1014.41
2018-09-25T01:19:01.668Z,1014.36
2018-09-25T01:20:01.630Z,1014.39
2018-09-25T01:21:01.608Z,1014.35
2018-09-25T01:22:01.601Z,1014.40
2018-09-25T01:23:01.604Z,1014.35
2018-09-25T01:24:01.529Z,1014.37
2018-09-25T01:25:01.534Z,1014.37
2018-09-25T01:26:01.498Z,1014.40
2018-09-25T01:27:01.463Z,1014.42
2018-09-25T01:28:01.440Z,1014.41
2018-09-25T01:29:01.414Z,1014.44
2018-09-25T01:30:01.405Z,1014.45
2018-09-25T01:31:01.366Z,1014.39
2018-09-25T01:32:01.344Z,1014.32
2018-09-25T01:33:01.322Z,1014.35
2018-09-25T01:34:01.310Z,1014.35
2018-09-25T01:35:01.293Z,1014.36
2018-09-25T01:36:01.262Z,1014.35
2018-09-25T01:37:01.232Z,1014.33
2018-09-25T01:38:01.242Z,1014.34
2018-09-25T01:39:01.197Z,1014.38
2018-09-25T01:40:01.191Z,1014.38
2018-09-25T01:41:01.163Z,1014.43
2018-09-25T01:42:01.175Z,1014.37
2018-09-25T01:43:01.098Z,1014.43
2018-09-25T01:44:01.082Z,1014.37
2018-09-25T01:45:01.047Z,1014.33
2018-09-25T01:46:01.034Z,1014.31
2018-09-25T01:47:01.005Z,1014.29
2018-09-25T01:48:00.973Z,1014.26
2018-09-25T01:49:00.983Z,1014.31
2018-09-25T01:50:00.929Z,1014.24
2018-09-25T01:51:00.909Z,1014.25
2018-09-25T01:52:00.914Z,1014.28
2018-09-25T01:53:00.881Z,1014.28
2018-09-25T01:54:00.840Z,1014.31
2018-09-25T01:55:00.816Z,1014.31
2018-09-25T01:56:00.801Z,1014.30
2018-09-25T01:57:00.780Z,1014.29
2018-09-25T01:58:00.759Z,1014.29
2018-09-25T01:59:00.723Z,1014.25
2018-09-25T02:00:00.700Z,1014.27
2018-09-25T02:01:00.677Z,1014.30
2018-09-25T02:02:00.655Z,1014.26
2018-09-25T02:03:00.630Z,1014.29
2018-09-25T02:04:00.614Z,1014.31
2018-09-25T02:05:00.598Z,1014.30
2018-09-25T02:06:00.561Z,1014.30
2018-09-25T02:07:00.535Z,1014.29
2018-09-25T02:08:00.517Z,1014.33
2018-09-25T02:09:00.493Z,1014.31
2018-09-25T02:10:00.464Z,1014.32
2018-09-25T02:11:00.439Z,1014.31
2018-09-25T02:12:00.423Z,1014.33
2018-09-25T02:13:00.436Z,1014.34
2018-09-25T02:14:00.366Z,1014.37
2018-09-25T02:15:00.378Z,1014.42
2018-09-25T02:16:00.340Z,1014.43
2018-09-25T02:17:00.325Z,1014.44
2018-09-25T02:18:00.296Z,1014.44
2018-09-25T02:19:00.262Z,1014.44
2018-09-25T02:20:00.278Z,1014.42
2018-09-25T02:21:00.208Z,1014.42
2018-09-25T02:22:00.192Z,1014.44
2018-09-25T02:23:00.165Z,1014.45
2018-09-25T02:24:00.133Z,1014.46
2018-09-25T02:25:00.122Z,1014.48
2018-09-25T02:26:00.090Z,1014.50
2018-09-25T02:27:00.091Z,1014.49
2018-09-25T02:28:00.052Z,1014.50
2018-09-25T02:29:00.024Z,1014.50
2018-09-25T02:29:59.993Z,1014.54
2018-09-25T02:30:59.978Z,1014.53
2018-09-25T02:31:59.949Z,1014.52
2018-09-25T02:32:59.922Z,1014.51
2018-09-25T02:33:59.901Z,1014.51
2018-09-25T02:34:59.891Z,1014.51
2018-09-25T02:35:59.865Z,1014.48
2018-09-25T02:36:59.870Z,1014.50
2018-09-25T02:37:59.830Z,1014.54
2018-09-25T02:38:59.796Z,1014.55
2018-09-25T02:39:59.789Z,1014.52
2018-09-25T02:40:59.750Z,1014.55
2018-09-25T02:41:59.747Z,1014.53
2018-09-25T02:42:59.731Z,1014.55
2018-09-25T02:43:59.698Z,1014.53
2018-09-25T02:44:59.659Z,1014.58
2018-09-25T02:45:59.624Z,1014.54
2018-09-25T02:46:59.598Z,1014.56
2018-09-25T02:47:59.570Z,1014.56
2018-09-25T02:48:59.559Z,1014.57
2018-09-25T02:49:59.535Z,1014.59
2018-09-25T02:50:59.499Z,1014.59
2018-09-25T02:51:59.489Z,1014.61
2018-09-25T02:52:59.467Z,1014.62
2018-09-25T02:53:59.442Z,1014.62
2018-09-25T02:54:59.417Z,1014.60
2018-09-25T02:55:59.384Z,1014.59
2018-09-25T02:56:59.397Z,1014.61
2018-09-25T02:57:59.340Z,1014.59
2018-09-25T02:58:59.320Z,1014.57
2018-09-25T02:59:59.297Z,1014.55
2018-09-25T03:00:59.287Z,1014.60
2018-09-25T03:01:59.282Z,1014.54
2018-09-25T03:02:59.231Z,1014.54
2018-09-25T03:03:59.218Z,1014.59
2018-09-25T03:04:59.192Z,1014.61
2018-09-25T03:05:59.163Z,1014.63
2018-09-25T03:06:59.134Z,1014.62
2018-09-25T03:07:59.111Z,1014.61
2018-09-25T03:08:59.092Z,1014.58
2018-09-25T03:09:59.073Z,1014.58
2018-09-25T03:10:59.040Z,1014.57
2018-09-25T03:11:59.034Z,1014.56
2018-09-25T03:12:59.015Z,1014.58
2018-09-25T03:13:58.971Z,1014.55
2018-09-25T03:14:58.948Z,1014.58
2018-09-25T03:15:58.929Z,1014.61
2018-09-25T03:16:58.898Z,1014.59
2018-09-25T03:17:58.889Z,1014.60
2018-09-25T03:18:58.871Z,1014.61
2018-09-25T03:19:58.827Z,1014.64
2018-09-25T03:20:58.797Z,1014.61
2018-09-25T03:21:58.808Z,1014.57
2018-09-25T03:22:58.760Z,1014.57
2018-09-25T03:23:58.913Z,1014.59
2018-09-25T03:24:58.740Z,1014.56
2018-09-25T03:25:58.718Z,1014.60
2018-09-25T03:26:58.664Z,1014.54
2018-09-25T03:27:58.680Z,1014.59
2018-09-25T03:28:58.635Z,1014.58
2018-09-25T03:29:58.600Z,1014.60
2018-09-25T03:30:58.572Z,1014.64
2018-09-25T03:31:58.558Z,1014.66
2018-09-25T03:32:59.018Z,1014.66
2018-09-25T03:33:58.494Z,1014.63
2018-09-25T03:34:58.482Z,1014.64
2018-09-25T03:35:58.472Z,1014.64
2018-09-25T03:36:58.430Z,1014.64
2018-09-25T03:37:58.402Z,1014.63
2018-09-25T03:38:59.015Z,1014.63
2018-09-25T03:39:58.363Z,1014.68
2018-09-25T03:40:58.332Z,1014.71
2018-09-25T03:41:58.355Z,1014.68
2018-09-25T03:42:58.282Z,1014.72
2018-09-25T03:43:58.292Z,1014.69
2018-09-25T03:44:58.248Z,1014.73
2018-09-25T03:45:58.209Z,1014.69
2018-09-25T03:46:58.215Z,1014.66
2018-09-25T03:47:58.167Z,1014.69
2018-09-25T03:48:58.166Z,1014.70
2018-09-25T03:49:58.135Z,1014.71
2018-09-25T03:50:58.091Z,1014.69
2018-09-25T03:51:58.071Z,1014.71
2018-09-25T03:52:58.043Z,1014.73
2018-09-25T03:53:58.061Z,1014.77
2018-09-25T03:54:58.013Z,1014.77
2018-09-25T03:55:57.979Z,1014.76
2018-09-25T03:56:57.956Z,1014.77
2018-09-25T03:57:57.930Z,1014.78
2018-09-25T03:58:57.953Z,1014.78
2018-09-25T03:59:57.879Z,1014.77
2018-09-25T04:00:57.856Z,1014.75
2018-09-25T04:01:57.831Z,1014.77
2018-09-25T04:02:57.808Z,1014.81
2018-09-25T04:03:57.785Z,1014.85
2018-09-25T04:04:57.773Z,1014.87
2018-09-25T04:05:57.773Z,1014.86
2018-09-25T04:06:57.712Z,1014.87
2018-09-25T04:07:57.701Z,1014.86
2018-09-25T04:08:57.665Z,1014.85
2018-09-25T04:09:57.646Z,1014.84
2018-09-25T04:10:57.622Z,1014.83
2018-09-25T04:11:57.605Z,1014.81
2018-09-25T04:12:57.577Z,1014.77
2018-09-25T04:13:57.547Z,1014.78
2018-09-25T04:14:57.535Z,1014.84
2018-09-25T04:15:57.508Z,1014.82
2018-09-25T04:16:57.495Z,1014.85
2018-09-25T04:17:57.454Z,1014.84
2018-09-25T04:18:57.431Z,1014.83
2018-09-25T04:19:57.415Z,1014.86
2018-09-25T04:20:57.393Z,1014.87
2018-09-25T04:21:57.364Z,1014.91
2018-09-25T04:22:57.332Z,1014.92
2018-09-25T04:23:57.318Z,1014.92
2018-09-25T04:24:57.280Z,1014.96
2018-09-25T04:25:57.263Z,1015.00
2018-09-25T04:26:57.257Z,1015.00
2018-09-25T04:27:57.216Z,1015.06
2018-09-25T04:28:57.205Z,1015.11
2018-09-25T04:29:57.168Z,1015.09
2018-09-25T04:30:57.146Z,1015.13
2018-09-25T04:31:57.125Z,1015.14
2018-09-25T04:32:57.098Z,1015.15
2018-09-25T04:33:57.082Z,1015.16
2018-09-25T04:34:57.052Z,1015.20
2018-09-25T04:35:57.024Z,1015.17
2018-09-25T04:36:57.007Z,1015.18
2018-09-25T04:37:56.990Z,1015.18
2018-09-25T04:38:56.960Z,1015.16
2018-09-25T04:39:56.931Z,1015.19
2018-09-25T04:40:56.916Z,1015.15
2018-09-25T04:41:56.880Z,1015.23
2018-09-25T04:42:56.860Z,1015.21
2018-09-25T04:43:56.841Z,1015.22
2018-09-25T04:44:56.813Z,1015.25
2018-09-25T04:45:56.790Z,1015.27
2018-09-25T04:46:56.761Z,1015.29
2018-09-25T04:47:56.792Z,1015.29
2018-09-25T04:48:56.743Z,1015.28
2018-09-25T04:49:56.701Z,1015.31
2018-09-25T04:50:56.695Z,1015.27
2018-09-25T04:51:56.657Z,1015.28
2018-09-25T04:52:56.631Z,1015.27
2018-09-25T04:53:56.600Z,1015.25
2018-09-25T04:54:56.585Z,1015.26
2018-09-25T04:55:56.581Z,1015.23
2018-09-25T04:56:56.586Z,1015.29
2018-09-25T04:57:56.504Z,1015.27
2018-09-25T04:58:56.487Z,1015.26
2018-09-25T04:59:56.457Z,1015.31
2018-09-25T05:00:56.458Z,1015.34
2018-09-25T05:01:56.431Z,1015.30
2018-09-25T05:02:56.436Z,1015.32
2018-09-25T05:03:56.370Z,1015.31
2018-09-25T05:04:56.348Z,1015.31
2018-09-25T05:05:56.310Z,1015.32
2018-09-25T05:06:56.293Z,1015.29
2018-09-25T05:07:56.271Z,1015.31
2018-09-25T05:08:56.258Z,1015.29
2018-09-25T05:09:56.233Z,1015.31
2018-09-25T05:10:56.205Z,1015.31
2018-09-25T05:11:56.221Z,1015.34
2018-09-25T05:12:56.151Z,1015.36
2018-09-25T05:13:56.126Z,1015.40
2018-09-25T05:14:56.108Z,1015.42
2018-09-25T05:15:56.074Z,1015.41
2018-09-25T05:16:56.053Z,1015.41
2018-09-25T05:17:56.056Z,1015.40
2018-09-25T05:18:56.008Z,1015.40
2018-09-25T05:19:55.980Z,1015.40
2018-09-25T05:20:55.957Z,1015.40
2018-09-25T05:21:55.954Z,1015.36
2018-09-25T05:22:55.908Z,1015.33
2018-09-25T05:23:55.894Z,1015.30
2018-09-25T05:24:55.929Z,1015.34
2018-09-25T05:25:55.841Z,1015.36
2018-09-25T05:26:55.819Z,1015.38
2018-09-25T05:27:55.793Z,1015.36
2018-09-25T05:28:55.774Z,1015.41
2018-09-25T05:29:55.738Z,1015.45
2018-09-25T05:30:55.723Z,1015.45
2018-09-25T05:31:55.694Z,1015.46
2018-09-25T05:32:55.685Z,1015.45
2018-09-25T05:33:55.644Z,1015.44
2018-09-25T05:34:55.626Z,1015.48
2018-09-25T05:35:55.600Z,1015.43
2018-09-25T05:36:55.577Z,1015.46
2018-09-25T05:37:55.561Z,1015.42
2018-09-25T05:38:55.531Z,1015.43
2018-09-25T05:39:55.504Z,1015.48
2018-09-25T05:40:55.508Z,1015.45
2018-09-25T05:41:55.463Z,1015.48
2018-09-25T05:42:55.505Z,1015.43
2018-09-25T05:43:55.411Z,1015.46
2018-09-25T05:44:55.531Z,1015.49
2018-09-25T05:45:55.358Z,1015.46
2018-09-25T05:46:55.335Z,1015.44
2018-09-25T05:47:55.314Z,1015.48
2018-09-25T05:48:55.387Z,1015.46
2018-09-25T05:49:55.273Z,1015.45
2018-09-25T05:50:55.245Z,1015.47
2018-09-25T05:51:55.211Z,1015.46
2018-09-25T05:52:55.194Z,1015.52
2018-09-25T05:53:55.170Z,1015.54
2018-09-25T05:54:55.154Z,1015.52
2018-09-25T05:55:55.125Z,1015.54
2018-09-25T05:56:55.099Z,1015.54
2018-09-25T05:57:55.073Z,1015.54
2018-09-25T05:58:55.051Z,1015.54
2018-09-25T05:59:55.026Z,1015.52
2018-09-25T06:00:55.074Z,1015.52
2018-09-25T06:01:54.981Z,1015.55
2018-09-25T06:02:54.958Z,1015.56
2018-09-25T06:03:54.933Z,1015.57
2018-09-25T06:04:54.909Z,1015.53
2018-09-25T06:05:54.891Z,1015.51
2018-09-25T06:06:54.868Z,1015.52
2018-09-25T06:07:54.846Z,1015.50
2018-09-25T06:08:54.811Z,1015.51
2018-09-25T06:09:54.788Z,1015.49
2018-09-25T06:10:54.772Z,1015.52
2018-09-25T06:11:54.748Z,1015.48
2018-09-25T06:12:54.723Z,1015.51
2018-09-25T06:13:54.705Z,1015.50
2018-09-25T06:14:54.682Z,1015.49
2018-09-25T06:15:54.650Z,1015.49
2018-09-25T06:16:54.628Z,1015.50
2018-09-25T06:17:54.609Z,1015.50
2018-09-25T06:18:54.593Z,1015.50
2018-09-25T06:19:54.560Z,1015.50
2018-09-25T06:20:54.531Z,1015.51
2018-09-25T06:21:54.509Z,1015.55
2018-09-25T06:22:54.533Z,1015.57
2018-09-25T06:23:54.471Z,1015.57
2018-09-25T06:24:54.439Z,1015.59
2018-09-25T06:25:54.416Z,1015.60
2018-09-25T06:26:54.394Z,1015.60
2018-09-25T06:27:54.368Z,1015.60
2018-09-25T06:28:54.359Z,1015.63
2018-09-25T06:29:54.325Z,1015.58
2018-09-25T06:30:54.300Z,1015.61
2018-09-25T06:31:54.280Z,1015.64
2018-09-25T06:32:54.252Z,1015.69
2018-09-25T06:33:54.222Z,1015.68
2018-09-25T06:34:54.268Z,1015.69
2018-09-25T06:35:54.178Z,1015.71
2018-09-25T06:36:54.164Z,1015.73
2018-09-25T06:37:54.131Z,1015.74
2018-09-25T06:38:54.108Z,1015.79
2018-09-25T06:39:54.086Z,1015.77
2018-09-25T06:40:54.132Z,1015.77
2018-09-25T06:41:54.048Z,1015.76
2018-09-25T06:42:54.016Z,1015.72
2018-09-25T06:43:53.990Z,1015.76
2018-09-25T06:44:53.974Z,1015.77
2018-09-25T06:45:53.952Z,1015.80
2018-09-25T06:46:53.920Z,1015.81
2018-09-25T06:47:53.904Z,1015.81
2018-09-25T06:48:53.875Z,1015.81
2018-09-25T06:49:53.855Z,1015.85
2018-09-25T06:50:53.836Z,1015.88
2018-09-25T06:51:53.805Z,1015.84
2018-09-25T06:52:53.788Z,1015.87
2018-09-25T06:53:53.767Z,1015.86
2018-09-25T06:54:53.793Z,1015.86
2018-09-25T06:55:53.712Z,1015.87
2018-09-25T06:56:53.696Z,1015.86
2018-09-25T06:57:53.668Z,1015.86
2018-09-25T06:58:53.645Z,1015.88
2018-09-25T06:59:53.623Z,1015.87
2018-09-25T07:00:53.647Z,1015.90
2018-09-25T07:01:53.580Z,1015.86
2018-09-25T07:02:53.555Z,1015.86
2018-09-25T07:03:53.531Z,1015.90
2018-09-25T07:04:53.509Z,1015.87
2018-09-25T07:05:53.493Z,1015.86
2018-09-25T07:06:53.470Z,1015.85
2018-09-25T07:07:53.438Z,1015.86
2018-09-25T07:08:53.419Z,1015.85
2018-09-25T07:09:53.435Z,1015.88
2018-09-25T07:10:53.371Z,1015.90
2018-09-25T07:11:53.349Z,1015.88
2018-09-25T07:12:53.327Z,1015.90
2018-09-25T07:13:53.304Z,1015.94
2018-09-25T07:14:53.285Z,1015.91
2018-09-25T07:15:53.256Z,1015.99
2018-09-25T07:16:53.240Z,1015.95
2018-09-25T07:17:53.319Z,1015.99
2018-09-25T07:18:53.189Z,1015.98
2018-09-25T07:19:53.176Z,1016.03
2018-09-25T07:20:53.154Z,1016.03
2018-09-25T07:21:53.128Z,1016.01
2018-09-25T07:22:53.106Z,1016.02
2018-09-25T07:23:53.076Z,1016.01
2018-09-25T07:24:53.113Z,1016.07
2018-09-25T07:25:53.041Z,1016.06
2018-09-25T07:26:53.019Z,1016.07
2018-09-25T07:27:53.003Z,1016.10
2018-09-25T07:28:52.967Z,1016.10
2018-09-25T07:29:52.946Z,1016.11
2018-09-25T07:30:52.969Z,1016.13
2018-09-25T07:31:52.910Z,1016.17
2018-09-25T07:32:52.886Z,1016.16
2018-09-25T07:33:52.863Z,1016.18
2018-09-25T07:34:52.834Z,1016.22
2018-09-25T07:35:52.812Z,1016.25
2018-09-25T07:36:52.797Z,1016.18
2018-09-25T07:37:52.774Z,1016.22
2018-09-25T07:38:52.751Z,1016.24
2018-09-25T07:39:52.728Z,1016.25
2018-09-25T07:40:52.712Z,1016.30
2018-09-25T07:41:52.689Z,1016.27
2018-09-25T07:42:52.667Z,1016.31
2018-09-25T07:43:52.645Z,1016.31
2018-09-25T07:44:52.622Z,1016.35
2018-09-25T07:45:52.607Z,1016.41
2018-09-25T07:46:52.584Z,1016.40
2018-09-25T07:47:52.568Z,1016.32
2018-09-25T07:48:52.545Z,1016.36
2018-09-25T07:49:52.532Z,1016.37
2018-09-25T07:50:52.507Z,1016.44
2018-09-25T07:51:52.491Z,1016.43
2018-09-25T07:52:52.471Z,1016.46
2018-09-25T07:53:52.457Z,1016.43
2018-09-25T07:54:52.429Z,1016.47
2018-09-25T07:55:52.410Z,1016.45
2018-09-25T07:56:52.391Z,1016.46
2018-09-25T07:57:52.372Z,1016.50
2018-09-25T07:58:52.357Z,1016.50
2018-09-25T07:59:52.344Z,1016.50
2018-09-25T08:00:52.323Z,1016.50
2018-09-25T08:01:52.307Z,1016.53
2018-09-25T08:02:52.285Z,1016.52
2018-09-25T08:03:52.272Z,1016.53
2018-09-25T08:04:52.251Z,1016.58
2018-09-25T08:05:52.241Z,1016.57
2018-09-25T08:06:52.216Z,1016.57
2018-09-25T08:07:52.199Z,1016.54
2018-09-25T08:08:52.197Z,1016.59
2018-09-25T08:09:52.173Z,1016.61
2018-09-25T08:10:52.149Z,1016.65
2018-09-25T08:11:52.131Z,1016.69
2018-09-25T08:12:52.116Z,1016.68
2018-09-25T08:13:52.100Z,1016.72
2018-09-25T08:14:52.087Z,1016.75
2018-09-25T08:15:52.068Z,1016.77
2018-09-25T08:16:52.058Z,1016.77
2018-09-25T08:17:52.040Z,1016.79
2018-09-25T08:18:52.023Z,1016.81
2018-09-25T08:19:52.013Z,1016.79
2018-09-25T08:20:52.001Z,1016.83
2018-09-25T08:21:51.981Z,1016.83
2018-09-25T08:22:51.963Z,1016.87
2018-09-25T08:23:51.949Z,1016.88
2018-09-25T08:24:51.932Z,1016.91
2018-09-25T08:25:52.575Z,1016.89
2018-09-25T08:26:51.900Z,1016.93
2018-09-25T08:27:51.887Z,1016.86
2018-09-25T08:28:51.877Z,1016.89
2018-09-25T08:29:51.938Z,1016.91
2018-09-25T08:30:51.849Z,1016.95
2018-09-25T08:31:51.826Z,1016.98
2018-09-25T08:32:51.820Z,1016.98
2018-09-25T08:33:51.798Z,1016.96
2018-09-25T08:34:51.805Z,1016.92
2018-09-25T08:35:51.772Z,1017.00
2018-09-25T08:36:51.763Z,1017.00
2018-09-25T08:37:51.740Z,1017.02
2018-09-25T08:38:51.783Z,1016.97
2018-09-25T08:39:51.712Z,1016.97
2018-09-25T08:40:51.701Z,1017.00
2018-09-25T08:41:51.689Z,1017.01
2018-09-25T08:42:51.670Z,1017.02
2018-09-25T08:43:51.681Z,1017.00
2018-09-25T08:44:51.664Z,1016.99
2018-09-25T08:45:51.704Z,1017.02
2018-09-25T08:46:51.623Z,1017.05
2018-09-25T08:47:51.613Z,1017.07
2018-09-25T08:48:51.588Z,1017.11
2018-09-25T08:49:51.586Z,1017.12
2018-09-25T08:50:51.568Z,1017.11
2018-09-25T08:51:51.546Z,1017.14
2018-09-25T08:52:51.539Z,1017.11
2018-09-25T08:53:51.527Z,1017.12
2018-09-25T08:54:51.509Z,1017.10
2018-09-25T08:55:51.491Z,1017.12
2018-09-25T08:56:51.479Z,1017.08
2018-09-25T08:57:51.466Z,1017.13
2018-09-25T08:58:51.456Z,1017.12
2018-09-25T08:59:51.445Z,1017.09
2018-09-25T09:00:51.478Z,1017.14
2018-09-25T09:01:51.411Z,1017.13
2018-09-25T09:02:51.405Z,1017.14
2018-09-25T09:03:51.385Z,1017.13
2018-09-25T09:04:51.376Z,1017.11
2018-09-25T09:05:51.357Z,1017.13
2018-09-25T09:06:51.350Z,1017.13
2018-09-25T09:07:51.335Z,1017.12
2018-09-25T09:08:51.322Z,1017.12
2018-09-25T09:09:51.302Z,1017.12
2018-09-25T09:10:51.294Z,1017.12
2018-09-25T09:11:51.277Z,1017.15
2018-09-25T09:12:51.264Z,1017.16
2018-09-25T09:13:51.245Z,1017.14
2018-09-25T09:14:51.239Z,1017.13
2018-09-25T09:15:51.220Z,1017.12
2018-09-25T09:16:51.210Z,1017.13
2018-09-25T09:17:51.203Z,1017.17
2018-09-25T09:18:51.175Z,1017.18
2018-09-25T09:19:51.173Z,1017.20
2018-09-25T09:20:51.155Z,1017.17
2018-09-25T09:21:51.142Z,1017.20
2018-09-25T09:22:51.125Z,1017.20
2018-09-25T09:23:51.106Z,1017.18
2018-09-25T09:24:51.110Z,1017.20
2018-09-25T09:25:51.086Z,1017.17
2018-09-25T09:26:51.067Z,1017.15
2018-09-25T09:27:51.052Z,1017.14
2018-09-25T09:28:51.039Z,1017.16
2018-09-25T09:29:51.054Z,1017.14
2018-09-25T09:30:51.013Z,1017.17
2018-09-25T09:31:51.013Z,1017.07
2018-09-25T09:32:50.991Z,1017.11
2018-09-25T09:33:50.968Z,1017.12
2018-09-25T09:34:50.958Z,1017.10
2018-09-25T09:35:50.947Z,1017.13
2018-09-25T09:36:50.928Z,1017.13
2018-09-25T09:37:50.915Z,1017.11
2018-09-25T09:38:50.905Z,1017.10
2018-09-25T09:39:50.892Z,1017.05
2018-09-25T09:40:50.901Z,1017.06
2018-09-25T09:41:51.033Z,1017.02
2018-09-25T09:42:50.844Z,1017.14
2018-09-25T09:43:50.838Z,1017.08
2018-09-25T09:44:50.822Z,1017.09
2018-09-25T09:45:50.812Z,1017.10
2018-09-25T09:46:50.790Z,1017.14
2018-09-25T09:47:50.777Z,1017.14
2018-09-25T09:48:50.767Z,1017.14
2018-09-25T09:49:50.759Z,1017.13
2018-09-25T09:50:50.787Z,1017.13
2018-09-25T09:51:50.722Z,1017.15
2018-09-25T09:52:50.708Z,1017.11
2018-09-25T09:53:50.696Z,1017.10
2018-09-25T09:54:50.683Z,1017.14
2018-09-25T09:55:50.679Z,1017.11
2018-09-25T09:56:50.661Z,1017.16
2018-09-25T09:57:50.648Z,1017.19
2018-09-25T09:58:50.635Z,1017.15
2018-09-25T09:59:50.619Z,1017.16
2018-09-25T10:00:50.609Z,1017.14
2018-09-25T10:01:50.604Z,1017.20
2018-09-25T10:02:50.584Z,1017.17
2018-09-25T10:03:50.571Z,1017.17
2018-09-25T10:04:50.565Z,1017.16
2018-09-25T10:05:50.552Z,1017.15
2018-09-25T10:06:50.625Z,1017.16
2018-09-25T10:07:50.533Z,1017.16
2018-09-25T10:08:50.518Z,1017.17
2018-09-25T10:09:50.509Z,1017.17
2018-09-25T10:10:50.495Z,1017.15
2018-09-25T10:11:50.489Z,1017.17
2018-09-25T10:12:50.473Z,1017.13
2018-09-25T10:13:50.457Z,1017.12
2018-09-25T10:14:50.454Z,1017.04
2018-09-25T10:15:50.445Z,1017.08
2018-09-25T10:16:50.435Z,1017.10
2018-09-25T10:17:50.422Z,1017.11
2018-09-25T10:18:50.471Z,1017.14
2018-09-25T10:19:50.408Z,1017.15
2018-09-25T10:20:50.386Z,1017.12
2018-09-25T10:21:50.384Z,1017.14
2018-09-25T10:22:50.373Z,1017.16
2018-09-25T10:23:50.362Z,1017.16
2018-09-25T10:24:50.351Z,1017.17
2018-09-25T10:25:50.342Z,1017.13
2018-09-25T10:26:50.339Z,1017.14
2018-09-25T10:27:50.322Z,1017.14
2018-09-25T10:28:50.313Z,1017.15
2018-09-25T10:29:50.309Z,1017.16
2018-09-25T10:30:50.303Z,1017.13
2018-09-25T10:31:50.294Z,1017.13
2018-09-25T10:32:50.277Z,1017.10
2018-09-25T10:33:50.329Z,1017.12
2018-09-25T10:34:50.261Z,1017.10
2018-09-25T10:35:50.252Z,1017.08
2018-09-25T10:36:50.251Z,1017.07
2018-09-25T10:37:50.239Z,1017.05
2018-09-25T10:38:50.235Z,1017.09
2018-09-25T10:39:50.225Z,1017.11
2018-09-25T10:40:50.228Z,1017.10
2018-09-25T10:41:50.207Z,1017.08
2018-09-25T10:42:50.211Z,1017.10
2018-09-25T10:43:50.208Z,1017.05
2018-09-25T10:44:50.185Z,1017.07
2018-09-25T10:45:50.187Z,1017.04
2018-09-25T10:46:50.182Z,1017.01
2018-09-25T10:47:50.175Z,1017.02
2018-09-25T10:48:50.169Z,1017.03
2018-09-25T10:49:50.155Z,1016.99
2018-09-25T10:50:50.147Z,1016.93
2018-09-25T10:51:50.144Z,1016.96
2018-09-25T10:52:50.131Z,1016.93
2018-09-25T10:53:50.124Z,1016.93
2018-09-25T10:54:50.127Z,1016.96
2018-09-25T10:55:50.206Z,1016.96
2018-09-25T10:56:50.105Z,1016.99
2018-09-25T10:57:50.095Z,1016.98
2018-09-25T10:58:50.105Z,1016.99
2018-09-25T10:59:50.084Z,1016.93
2018-09-25T11:00:50.074Z,1016.95
2018-09-25T11:01:50.073Z,1016.94
2018-09-25T11:02:50.120Z,1016.91
2018-09-25T11:03:50.053Z,1016.90
2018-09-25T11:04:50.044Z,1016.85
2018-09-25T11:05:50.054Z,1016.83
2018-09-25T11:06:50.035Z,1016.84
2018-09-25T11:07:50.023Z,1016.82
2018-09-25T11:08:50.012Z,1016.80
2018-09-25T11:09:49.999Z,1016.82
2018-09-25T11:10:49.998Z,1016.82
2018-09-25T11:11:49.983Z,1016.87
2018-09-25T11:12:49.983Z,1016.86
2018-09-25T11:13:49.967Z,1016.86
2018-09-25T11:14:49.954Z,1016.85
2018-09-25T11:15:49.948Z,1016.89
2018-09-25T11:16:49.946Z,1016.83
2018-09-25T11:17:49.969Z,1016.87
2018-09-25T11:18:49.919Z,1016.81
2018-09-25T11:19:49.906Z,1016.87
2018-09-25T11:20:49.897Z,1016.87
2018-09-25T11:21:49.897Z,1016.91
2018-09-25T11:22:49.881Z,1016.85
2018-09-25T11:23:49.874Z,1016.87
2018-09-25T11:24:49.871Z,1016.91
2018-09-25T11:25:49.871Z,1016.96
2018-09-25T11:26:49.862Z,1016.88
2018-09-25T11:27:49.852Z,1016.88
2018-09-25T11:28:49.843Z,1016.94
2018-09-25T11:29:49.848Z,1016.94
2018-09-25T11:30:49.834Z,1016.96
2018-09-25T11:31:49.829Z,1016.96
2018-09-25T11:32:49.826Z,1016.94
2018-09-25T11:33:49.820Z,1016.92
2018-09-25T11:34:49.810Z,1016.99
2018-09-25T11:35:49.807Z,1016.94
2018-09-25T11:36:49.807Z,1016.90
2018-09-25T11:37:49.798Z,1016.95
2018-09-25T11:38:49.787Z,1016.92
2018-09-25T11:39:49.782Z,1016.88
2018-09-25T11:40:49.811Z,1016.87
2018-09-25T11:41:49.772Z,1016.90
2018-09-25T11:42:49.766Z,1016.87
2018-09-25T11:43:49.762Z,1016.82
2018-09-25T11:44:49.756Z,1016.80
2018-09-25T11:45:49.780Z,1016.82
2018-09-25T11:46:49.844Z,1016.85
2018-09-25T11:47:49.743Z,1016.86
2018-09-25T11:48:49.740Z,1016.86
2018-09-25T11:49:49.812Z,1016.88
2018-09-25T11:50:49.727Z,1016.84
2018-09-25T11:51:49.753Z,1016.81
2018-09-25T11:52:49.735Z,1016.85
2018-09-25T11:53:49.732Z,1016.86
2018-09-25T11:54:49.724Z,1016.87
2018-09-25T11:55:49.701Z,1016.94
2018-09-25T11:56:49.698Z,1016.93
2018-09-25T11:57:49.688Z,1016.91
2018-09-25T11:58:49.692Z,1016.96
2018-09-25T11:59:49.694Z,1016.87
2018-09-25T12:00:49.679Z,1016.86
2018-09-25T12:01:49.688Z,1016.84
2018-09-25T12:02:49.669Z,1016.83
2018-09-25T12:03:49.692Z,1016.80
2018-09-25T12:04:49.668Z,1016.83